Mechanics Grove, Pennsylvania
Current Conditions -  °F | °C
As of 5:15 PM on Sunday 21 Dec 2014 (Local Time) from KMQS Reporting Station
Clear Clear  
Wind Chill: 27°   Ceiling: Unl
Heat Index: 32°   Visibility: 10mi
Dew Point: 25°   Wind: 5mph
Humidity: 75%   Direction: 320°NW
Pressure: 30.3"   Gusts: NA
Location:  39.8731°N, 76.1426°W
Report Text: KMQS 212215Z AUTO 32004KT 10SM CLR 00/M04 A3030 RMK AO2
Loading
Personal Weather Stations






























Interactive Weather Map New forecast layout! Learn more

10-Day Weather Forecast

Advertisements
Track Severe Weather on mobile